sensor_id;sensor_type;location;lat;lon;timestamp;pressure;altitude;pressure_sealevel;temperature;humidity
26657;BME280;14279;50.010;8.260;2022-08-03T00:01:16;100433.63;;;24.21;49.59
26657;BME280;14279;50.010;8.260;2022-08-03T00:03:42;100427.16;;;24.23;49.69
26657;BME280;14279;50.010;8.260;2022-08-03T00:06:07;100424.47;;;24.15;49.67
26657;BME280;14279;50.010;8.260;2022-08-03T00:08:32;100426.44;;;24.13;49.79
26657;BME280;14279;50.010;8.260;2022-08-03T00:10:58;100433.19;;;23.99;49.46
26657;BME280;14279;50.010;8.260;2022-08-03T00:13:24;100434.03;;;23.81;49.74
26657;BME280;14279;50.010;8.260;2022-08-03T00:15:49;100426.38;;;23.78;49.93
26657;BME280;14279;50.010;8.260;2022-08-03T00:18:17;100426.59;;;23.85;49.82
26657;BME280;14279;50.010;8.260;2022-08-03T00:20:43;100422.09;;;23.85;50.27
26657;BME280;14279;50.010;8.260;2022-08-03T00:23:09;100420.06;;;23.79;50.36
26657;BME280;14279;50.010;8.260;2022-08-03T00:25:34;100427.06;;;23.80;50.51
26657;BME280;14279;50.010;8.260;2022-08-03T00:28:01;100429.56;;;23.82;50.36
26657;BME280;14279;50.010;8.260;2022-08-03T00:30:26;100425.97;;;23.91;50.62
26657;BME280;14279;50.010;8.260;2022-08-03T00:32:52;100427.41;;;23.85;50.69
26657;BME280;14279;50.010;8.260;2022-08-03T00:35:17;100421.44;;;23.83;51.06
26657;BME280;14279;50.010;8.260;2022-08-03T00:37:42;100420.09;;;23.87;51.22
26657;BME280;14279;50.010;8.260;2022-08-03T00:40:10;100424.09;;;23.83;51.32
26657;BME280;14279;50.010;8.260;2022-08-03T00:43:06;100427.47;;;23.67;51.53
26657;BME280;14279;50.010;8.260;2022-08-03T00:45:36;100415.63;;;23.62;51.79
26657;BME280;14279;50.010;8.260;2022-08-03T00:48:03;100421.97;;;23.42;52.45
26657;BME280;14279;50.010;8.260;2022-08-03T00:50:32;100422.19;;;23.31;52.34
26657;BME280;14279;50.010;8.260;2022-08-03T00:53:00;100423.72;;;23.34;52.19
26657;BME280;14279;50.010;8.260;2022-08-03T00:55:26;100424.47;;;23.26;52.19
26657;BME280;14279;50.010;8.260;2022-08-03T00:57:52;100420.38;;;23.32;51.97
26657;BME280;14279;50.010;8.260;2022-08-03T01:00:20;100427.66;;;23.30;52.11
26657;BME280;14279;50.010;8.260;2022-08-03T01:02:46;100422.72;;;23.17;52.43
26657;BME280;14279;50.010;8.260;2022-08-03T01:05:12;100419.06;;;23.18;52.18
26657;BME280;14279;50.010;8.260;2022-08-03T01:08:07;100425.88;;;23.20;52.55
26657;BME280;14279;50.010;8.260;2022-08-03T01:13:30;100420.69;;;23.29;51.90
26657;BME280;14279;50.010;8.260;2022-08-03T01:16:02;100415.59;;;23.35;51.40
26657;BME280;14279;50.010;8.260;2022-08-03T01:18:35;100413.47;;;23.21;51.47
26657;BME280;14279;50.010;8.260;2022-08-03T01:21:08;100415.59;;;22.99;52.27
26657;BME280;14279;50.010;8.260;2022-08-03T01:27:08;100419.34;;;22.96;52.16
26657;BME280;14279;50.010;8.260;2022-08-03T01:29:58;100408.59;;;22.98;52.26
26657;BME280;14279;50.010;8.260;2022-08-03T01:32:34;100413.94;;;22.88;53.29
26657;BME280;14279;50.010;8.260;2022-08-03T01:35:13;100416.38;;;22.81;53.52
26657;BME280;14279;50.010;8.260;2022-08-03T01:37:44;100411.22;;;22.80;53.44
26657;BME280;14279;50.010;8.260;2022-08-03T01:40:12;100408.19;;;22.75;54.03
26657;BME280;14279;50.010;8.260;2022-08-03T01:42:40;100411.03;;;22.63;54.09
26657;BME280;14279;50.010;8.260;2022-08-03T01:45:08;100408.94;;;22.67;54.08
26657;BME280;14279;50.010;8.260;2022-08-03T01:47:35;100409.22;;;22.64;54.12
26657;BME280;14279;50.010;8.260;2022-08-03T01:50:02;100405.31;;;22.68;54.11
26657;BME280;14279;50.010;8.260;2022-08-03T01:52:29;100410.31;;;22.71;54.02
26657;BME280;14279;50.010;8.260;2022-08-03T01:54:56;100408.38;;;22.63;54.19
26657;BME280;14279;50.010;8.260;2022-08-03T01:57:23;100404.03;;;22.44;54.86
26657;BME280;14279;50.010;8.260;2022-08-03T01:59:49;100400.78;;;22.41;55.33
26657;BME280;14279;50.010;8.260;2022-08-03T02:02:18;100406.09;;;22.41;55.13
26657;BME280;14279;50.010;8.260;2022-08-03T02:04:46;100400.13;;;22.48;54.80
26657;BME280;14279;50.010;8.260;2022-08-03T02:07:13;100401.13;;;22.37;55.62
26657;BME280;14279;50.010;8.260;2022-08-03T02:09:39;100401.78;;;22.49;55.10
26657;BME280;14279;50.010;8.260;2022-08-03T02:12:10;100399.56;;;22.45;55.16
26657;BME280;14279;50.010;8.260;2022-08-03T02:14:38;100399.97;;;22.40;55.54
26657;BME280;14279;50.010;8.260;2022-08-03T02:17:06;100398.16;;;22.41;55.82
26657;BME280;14279;50.010;8.260;2022-08-03T02:19:33;100405.97;;;22.42;55.33
26657;BME280;14279;50.010;8.260;2022-08-03T02:21:59;100404.56;;;22.48;55.33
26657;BME280;14279;50.010;8.260;2022-08-03T02:24:25;100395.63;;;22.49;55.22
26657;BME280;14279;50.010;8.260;2022-08-03T02:26:53;100399.56;;;22.35;55.38
26657;BME280;14279;50.010;8.260;2022-08-03T02:29:23;100406.19;;;22.21;55.72
26657;BME280;14279;50.010;8.260;2022-08-03T02:31:49;100397.84;;;22.16;55.80
26657;BME280;14279;50.010;8.260;2022-08-03T02:34:15;100396.47;;;22.12;55.94
26657;BME280;14279;50.010;8.260;2022-08-03T02:36:45;100400.81;;;22.03;55.77
26657;BME280;14279;50.010;8.260;2022-08-03T02:39:17;100399.47;;;21.99;56.03
26657;BME280;14279;50.010;8.260;2022-08-03T02:41:49;100398.97;;;22.13;55.55
26657;BME280;14279;50.010;8.260;2022-08-03T02:44:17;100400.75;;;22.22;55.59
26657;BME280;14279;50.010;8.260;2022-08-03T02:46:45;100404.72;;;22.09;55.66
26657;BME280;14279;50.010;8.260;2022-08-03T02:49:15;100394.69;;;22.02;56.25
26657;BME280;14279;50.010;8.260;2022-08-03T02:51:43;100402.06;;;22.09;55.97
26657;BME280;14279;50.010;8.260;2022-08-03T02:54:11;100393.25;;;22.08;55.89
26657;BME280;14279;50.010;8.260;2022-08-03T02:56:40;100401.91;;;22.10;55.97
26657;BME280;14279;50.010;8.260;2022-08-03T02:59:06;100399.66;;;22.15;55.46
26657;BME280;14279;50.010;8.260;2022-08-03T03:01:32;100392.03;;;22.02;55.87
26657;BME280;14279;50.010;8.260;2022-08-03T03:03:59;100389.38;;;22.02;55.86
26657;BME280;14279;50.010;8.260;2022-08-03T03:06:24;100394.31;;;21.87;56.57
26657;BME280;14279;50.010;8.260;2022-08-03T03:08:51;100390.03;;;21.76;57.27
26657;BME280;14279;50.010;8.260;2022-08-03T03:11:18;100392.13;;;21.73;57.20
26657;BME280;14279;50.010;8.260;2022-08-03T03:13:45;100391.97;;;21.74;56.96
26657;BME280;14279;50.010;8.260;2022-08-03T03:16:12;100394.91;;;21.71;56.73
26657;BME280;14279;50.010;8.260;2022-08-03T03:18:38;100397.44;;;21.63;56.92
26657;BME280;14279;50.010;8.260;2022-08-03T03:21:06;100396.56;;;21.72;57.04
26657;BME280;14279;50.010;8.260;2022-08-03T03:23:34;100396.47;;;21.64;56.98
26657;BME280;14279;50.010;8.260;2022-08-03T03:26:01;100398.53;;;21.60;57.05
26657;BME280;14279;50.010;8.260;2022-08-03T03:28:29;100393.22;;;21.60;57.26
26657;BME280;14279;50.010;8.260;2022-08-03T03:30:57;100397.44;;;21.63;57.15
26657;BME280;14279;50.010;8.260;2022-08-03T03:33:23;100393.50;;;21.57;57.43
26657;BME280;14279;50.010;8.260;2022-08-03T03:35:49;100397.28;;;21.65;57.22
26657;BME280;14279;50.010;8.260;2022-08-03T03:38:15;100402.03;;;21.71;57.24
26657;BME280;14279;50.010;8.260;2022-08-03T03:40:41;100394.78;;;21.73;56.70
26657;BME280;14279;50.010;8.260;2022-08-03T03:43:29;100394.34;;;21.77;56.63
26657;BME280;14279;50.010;8.260;2022-08-03T03:46:20;100404.38;;;21.84;56.02
26657;BME280;14279;50.010;8.260;2022-08-03T03:49:07;100398.94;;;21.75;56.90
26657;BME280;14279;50.010;8.260;2022-08-03T03:51:53;100389.22;;;21.66;56.95
26657;BME280;14279;50.010;8.260;2022-08-03T03:54:19;100408.16;;;21.52;57.47
26657;BME280;14279;50.010;8.260;2022-08-03T03:56:44;100407.91;;;21.35;57.88
26657;BME280;14279;50.010;8.260;2022-08-03T03:59:15;100400.09;;;21.33;57.98
26657;BME280;14279;50.010;8.260;2022-08-03T04:01:40;100407.47;;;21.40;57.90
26657;BME280;14279;50.010;8.260;2022-08-03T04:04:06;100401.47;;;21.47;57.87
26657;BME280;14279;50.010;8.260;2022-08-03T04:06:50;100399.94;;;21.45;57.87
26657;BME280;14279;50.010;8.260;2022-08-03T04:09:40;100397.31;;;21.35;58.27
26657;BME280;14279;50.010;8.260;2022-08-03T04:12:27;100401.22;;;21.21;58.45
26657;BME280;14279;50.010;8.260;2022-08-03T04:14:58;100399.00;;;21.26;58.16
26657;BME280;14279;50.010;8.260;2022-08-03T04:17:27;100395.75;;;21.32;58.08
26657;BME280;14279;50.010;8.260;2022-08-03T04:19:56;100396.19;;;21.28;58.04
26657;BME280;14279;50.010;8.260;2022-08-03T04:22:24;100396.19;;;21.38;57.99
26657;BME280;14279;50.010;8.260;2022-08-03T04:25:06;100393.94;;;21.43;57.83
26657;BME280;14279;50.010;8.260;2022-08-03T04:27:39;100393.41;;;21.39;57.88
26657;BME280;14279;50.010;8.260;2022-08-03T04:30:05;100402.31;;;21.58;57.56
26657;BME280;14279;50.010;8.260;2022-08-03T04:32:32;100403.13;;;21.58;57.67
26657;BME280;14279;50.010;8.260;2022-08-03T04:34:57;100400.38;;;21.50;57.93
26657;BME280;14279;50.010;8.260;2022-08-03T04:40:01;100408.03;;;21.73;57.25
26657;BME280;14279;50.010;8.260;2022-08-03T04:42:27;100408.44;;;21.78;56.98
26657;BME280;14279;50.010;8.260;2022-08-03T04:44:54;100413.59;;;21.70;57.44
26657;BME280;14279;50.010;8.260;2022-08-03T04:47:21;100421.41;;;21.71;57.20
26657;BME280;14279;50.010;8.260;2022-08-03T04:49:46;100412.38;;;21.64;57.44
26657;BME280;14279;50.010;8.260;2022-08-03T04:52:12;100416.09;;;21.52;57.67
26657;BME280;14279;50.010;8.260;2022-08-03T04:54:41;100416.38;;;21.39;58.18
26657;BME280;14279;50.010;8.260;2022-08-03T04:57:07;100424.06;;;21.42;58.08
26657;BME280;14279;50.010;8.260;2022-08-03T04:59:32;100429.63;;;21.29;58.94
26657;BME280;14279;50.010;8.260;2022-08-03T05:02:22;100423.63;;;21.37;58.78
26657;BME280;14279;50.010;8.260;2022-08-03T05:05:26;100423.34;;;21.40;58.79
26657;BME280;14279;50.010;8.260;2022-08-03T05:07:58;100421.41;;;21.42;58.99
26657;BME280;14279;50.010;8.260;2022-08-03T05:10:23;100427.25;;;21.36;58.99
26657;BME280;14279;50.010;8.260;2022-08-03T05:12:57;100417.91;;;21.31;59.00
26657;BME280;14279;50.010;8.260;2022-08-03T05:15:23;100425.03;;;21.41;58.51
26657;BME280;14279;50.010;8.260;2022-08-03T05:17:48;100434.53;;;21.53;58.01
26657;BME280;14279;50.010;8.260;2022-08-03T05:20:13;100438.53;;;21.47;58.29
26657;BME280;14279;50.010;8.260;2022-08-03T05:22:38;100436.31;;;21.53;58.18
26657;BME280;14279;50.010;8.260;2022-08-03T05:25:04;100436.50;;;21.61;57.54
26657;BME280;14279;50.010;8.260;2022-08-03T05:27:29;100444.69;;;21.68;57.43
26657;BME280;14279;50.010;8.260;2022-08-03T05:29:56;100440.91;;;21.70;57.58
26657;BME280;14279;50.010;8.260;2022-08-03T05:32:25;100439.56;;;21.66;57.52
26657;BME280;14279;50.010;8.260;2022-08-03T05:34:50;100446.78;;;21.74;57.28
26657;BME280;14279;50.010;8.260;2022-08-03T05:37:15;100439.25;;;21.89;56.47
26657;BME280;14279;50.010;8.260;2022-08-03T05:39:40;100443.44;;;21.82;56.77
26657;BME280;14279;50.010;8.260;2022-08-03T05:42:06;100442.72;;;21.89;56.14
26657;BME280;14279;50.010;8.260;2022-08-03T05:44:31;100446.88;;;22.02;56.10
26657;BME280;14279;50.010;8.260;2022-08-03T05:46:57;100444.19;;;22.12;55.60
26657;BME280;14279;50.010;8.260;2022-08-03T05:49:22;100448.78;;;22.19;55.34
26657;BME280;14279;50.010;8.260;2022-08-03T05:51:47;100447.78;;;22.20;55.16
26657;BME280;14279;50.010;8.260;2022-08-03T05:54:13;100450.38;;;22.40;54.20
26657;BME280;14279;50.010;8.260;2022-08-03T05:56:38;100451.63;;;22.36;54.22
26657;BME280;14279;50.010;8.260;2022-08-03T05:59:18;100452.47;;;22.36;54.28
26657;BME280;14279;50.010;8.260;2022-08-03T06:01:44;100448.84;;;22.47;53.72
26657;BME280;14279;50.010;8.260;2022-08-03T06:04:09;100449.09;;;22.54;53.72
26657;BME280;14279;50.010;8.260;2022-08-03T06:06:35;100452.13;;;22.59;53.42
26657;BME280;14279;50.010;8.260;2022-08-03T06:09:00;100452.13;;;22.59;53.41
26657;BME280;14279;50.010;8.260;2022-08-03T06:11:25;100452.91;;;22.70;53.08
26657;BME280;14279;50.010;8.260;2022-08-03T06:13:51;100451.72;;;22.54;53.23
26657;BME280;14279;50.010;8.260;2022-08-03T06:16:16;100452.78;;;22.71;52.91
26657;BME280;14279;50.010;8.260;2022-08-03T06:18:41;100451.72;;;22.82;53.71
26657;BME280;14279;50.010;8.260;2022-08-03T06:21:06;100451.09;;;22.88;54.54
26657;BME280;14279;50.010;8.260;2022-08-03T06:23:32;100446.84;;;22.77;55.09
26657;BME280;14279;50.010;8.260;2022-08-03T06:25:57;100451.03;;;22.80;54.84
26657;BME280;14279;50.010;8.260;2022-08-03T06:28:22;100444.53;;;22.74;54.82
26657;BME280;14279;50.010;8.260;2022-08-03T06:31:01;100452.72;;;22.81;54.75
26657;BME280;14279;50.010;8.260;2022-08-03T06:33:50;100450.06;;;22.81;54.90
26657;BME280;14279;50.010;8.260;2022-08-03T06:36:22;100450.88;;;22.81;55.00
26657;BME280;14279;50.010;8.260;2022-08-03T06:38:47;100447.81;;;22.86;54.85
26657;BME280;14279;50.010;8.260;2022-08-03T06:41:13;100443.13;;;22.98;54.71
26657;BME280;14279;50.010;8.260;2022-08-03T06:43:38;100441.13;;;23.00;54.55
26657;BME280;14279;50.010;8.260;2022-08-03T06:46:04;100444.16;;;23.05;54.73
26657;BME280;14279;50.010;8.260;2022-08-03T06:48:29;100447.88;;;23.12;54.35
26657;BME280;14279;50.010;8.260;2022-08-03T06:50:55;100451.13;;;23.06;54.88
26657;BME280;14279;50.010;8.260;2022-08-03T06:56:08;100443.72;;;23.10;55.01
26657;BME280;14279;50.010;8.260;2022-08-03T06:58:33;100446.56;;;23.26;54.58
26657;BME280;14279;50.010;8.260;2022-08-03T07:00:59;100451.78;;;23.36;53.91
26657;BME280;14279;50.010;8.260;2022-08-03T07:06:51;100451.88;;;23.26;52.54
26657;BME280;14279;50.010;8.260;2022-08-03T07:16:28;100451.91;;;23.71;50.98
26657;BME280;14279;50.010;8.260;2022-08-03T07:26:27;100455.16;;;24.36;48.25
26657;BME280;14279;50.010;8.260;2022-08-03T07:35:35;100456.00;;;24.79;46.79
26657;BME280;14279;50.010;8.260;2022-08-03T07:38:00;100456.03;;;24.87;44.82
26657;BME280;14279;50.010;8.260;2022-08-03T07:40:25;100459.56;;;24.96;45.31
26657;BME280;14279;50.010;8.260;2022-08-03T07:42:51;100460.56;;;25.03;45.69
26657;BME280;14279;50.010;8.260;2022-08-03T07:45:16;100459.75;;;25.19;46.08
26657;BME280;14279;50.010;8.260;2022-08-03T07:47:41;100456.78;;;25.39;45.69
26657;BME280;14279;50.010;8.260;2022-08-03T07:50:07;100458.63;;;25.55;45.22
26657;BME280;14279;50.010;8.260;2022-08-03T07:52:32;100455.16;;;25.63;45.68
26657;BME280;14279;50.010;8.260;2022-08-03T07:55:19;100451.31;;;25.49;45.76
26657;BME280;14279;50.010;8.260;2022-08-03T07:57:44;100451.97;;;25.68;45.44
26657;BME280;14279;50.010;8.260;2022-08-03T08:00:22;100447.66;;;25.75;45.01
26657;BME280;14279;50.010;8.260;2022-08-03T08:02:47;100454.59;;;25.92;44.44
26657;BME280;14279;50.010;8.260;2022-08-03T08:05:12;100451.59;;;25.95;44.21
26657;BME280;14279;50.010;8.260;2022-08-03T08:07:38;100455.75;;;25.98;43.97
26657;BME280;14279;50.010;8.260;2022-08-03T08:10:05;100449.88;;;26.11;42.97
26657;BME280;14279;50.010;8.260;2022-08-03T08:13:02;100442.03;;;26.34;42.21
26657;BME280;14279;50.010;8.260;2022-08-03T08:16:14;100440.53;;;26.32;40.94
26657;BME280;14279;50.010;8.260;2022-08-03T08:18:39;100438.69;;;26.32;40.39
26657;BME280;14279;50.010;8.260;2022-08-03T08:21:07;100436.94;;;26.48;41.25
26657;BME280;14279;50.010;8.260;2022-08-03T08:23:34;100438.75;;;26.55;40.17
26657;BME280;14279;50.010;8.260;2022-08-03T08:25:59;100437.63;;;26.41;39.86
26657;BME280;14279;50.010;8.260;2022-08-03T08:28:24;100437.72;;;26.65;39.20
26657;BME280;14279;50.010;8.260;2022-08-03T08:30:50;100436.88;;;26.64;39.80
26657;BME280;14279;50.010;8.260;2022-08-03T08:33:15;100441.72;;;26.61;40.30
26657;BME280;14279;50.010;8.260;2022-08-03T08:35:40;100437.50;;;26.75;40.23
26657;BME280;14279;50.010;8.260;2022-08-03T08:38:06;100439.50;;;26.81;40.08
26657;BME280;14279;50.010;8.260;2022-08-03T08:40:31;100438.06;;;26.93;39.88
26657;BME280;14279;50.010;8.260;2022-08-03T08:42:57;100435.78;;;27.13;39.32
26657;BME280;14279;50.010;8.260;2022-08-03T08:45:22;100436.28;;;27.09;39.61
26657;BME280;14279;50.010;8.260;2022-08-03T08:47:49;100436.91;;;27.19;39.58
26657;BME280;14279;50.010;8.260;2022-08-03T08:50:19;100430.28;;;27.30;39.25
26657;BME280;14279;50.010;8.260;2022-08-03T08:52:47;100432.56;;;27.41;39.01
26657;BME280;14279;50.010;8.260;2022-08-03T08:55:17;100425.63;;;27.55;38.58
26657;BME280;14279;50.010;8.260;2022-08-03T08:57:47;100435.31;;;27.56;38.80
26657;BME280;14279;50.010;8.260;2022-08-03T09:00:13;100425.34;;;27.65;38.70
26657;BME280;14279;50.010;8.260;2022-08-03T09:02:40;100424.06;;;27.61;39.11
26657;BME280;14279;50.010;8.260;2022-08-03T09:05:10;100430.25;;;27.77;38.60
26657;BME280;14279;50.010;8.260;2022-08-03T09:07:37;100420.78;;;27.89;38.30
26657;BME280;14279;50.010;8.260;2022-08-03T09:10:02;100428.53;;;27.99;38.04
26657;BME280;14279;50.010;8.260;2022-08-03T09:12:28;100428.25;;;28.09;38.00
26657;BME280;14279;50.010;8.260;2022-08-03T09:14:54;100424.66;;;28.16;37.37
26657;BME280;14279;50.010;8.260;2022-08-03T09:17:19;100434.41;;;28.09;37.58
26657;BME280;14279;50.010;8.260;2022-08-03T09:20:04;100423.94;;;28.23;37.33
26657;BME280;14279;50.010;8.260;2022-08-03T09:22:30;100417.84;;;28.29;37.24
26657;BME280;14279;50.010;8.260;2022-08-03T09:25:05;100414.69;;;28.25;37.34
26657;BME280;14279;50.010;8.260;2022-08-03T09:27:43;100418.66;;;28.14;37.37
26657;BME280;14279;50.010;8.260;2022-08-03T09:30:16;100418.94;;;28.34;37.24
26657;BME280;14279;50.010;8.260;2022-08-03T09:32:43;100417.06;;;28.35;37.07
26657;BME280;14279;50.010;8.260;2022-08-03T09:35:10;100418.97;;;28.56;36.66
26657;BME280;14279;50.010;8.260;2022-08-03T09:37:36;100414.41;;;28.72;35.98
26657;BME280;14279;50.010;8.260;2022-08-03T09:40:02;100413.69;;;28.78;35.73
26657;BME280;14279;50.010;8.260;2022-08-03T09:42:28;100415.31;;;28.94;35.14
26657;BME280;14279;50.010;8.260;2022-08-03T09:44:53;100414.22;;;29.10;35.17
26657;BME280;14279;50.010;8.260;2022-08-03T09:47:33;100410.56;;;29.18;34.48
26657;BME280;14279;50.010;8.260;2022-08-03T09:50:05;100402.72;;;29.16;33.63
26657;BME280;14279;50.010;8.260;2022-08-03T09:52:34;100403.84;;;29.29;33.73
26657;BME280;14279;50.010;8.260;2022-08-03T09:55:02;100407.59;;;29.34;33.63
26657;BME280;14279;50.010;8.260;2022-08-03T09:57:31;100397.41;;;29.45;33.38
26657;BME280;14279;50.010;8.260;2022-08-03T10:00:09;100401.59;;;29.54;33.32
26657;BME280;14279;50.010;8.260;2022-08-03T10:02:36;100401.16;;;29.50;33.06
26657;BME280;14279;50.010;8.260;2022-08-03T10:05:02;100397.16;;;29.68;32.98
26657;BME280;14279;50.010;8.260;2022-08-03T10:07:28;100395.50;;;29.67;32.98
26657;BME280;14279;50.010;8.260;2022-08-03T10:09:59;100394.31;;;29.76;32.44
26657;BME280;14279;50.010;8.260;2022-08-03T10:12:25;100393.75;;;29.88;31.84
26657;BME280;14279;50.010;8.260;2022-08-03T10:14:51;100384.28;;;29.92;32.08
26657;BME280;14279;50.010;8.260;2022-08-03T10:17:17;100382.94;;;30.03;31.59
26657;BME280;14279;50.010;8.260;2022-08-03T10:19:43;100381.72;;;30.05;31.72
26657;BME280;14279;50.010;8.260;2022-08-03T10:22:26;100372.53;;;29.93;32.11
26657;BME280;14279;50.010;8.260;2022-08-03T10:24:58;100378.75;;;29.93;31.62
26657;BME280;14279;50.010;8.260;2022-08-03T10:27:26;100366.44;;;30.06;30.91
26657;BME280;14279;50.010;8.260;2022-08-03T10:29:54;100364.00;;;30.11;30.83
26657;BME280;14279;50.010;8.260;2022-08-03T10:32:30;100363.00;;;30.25;30.42
26657;BME280;14279;50.010;8.260;2022-08-03T10:35:12;100362.19;;;30.32;31.08
26657;BME280;14279;50.010;8.260;2022-08-03T10:37:57;100366.38;;;30.41;30.09
26657;BME280;14279;50.010;8.260;2022-08-03T10:40:23;100357.63;;;30.25;30.27
26657;BME280;14279;50.010;8.260;2022-08-03T10:42:53;100354.78;;;30.40;29.94
26657;BME280;14279;50.010;8.260;2022-08-03T10:45:23;100352.53;;;30.44;29.81
26657;BME280;14279;50.010;8.260;2022-08-03T10:47:50;100349.84;;;30.44;30.16
26657;BME280;14279;50.010;8.260;2022-08-03T10:50:17;100347.38;;;30.49;29.69
26657;BME280;14279;50.010;8.260;2022-08-03T10:53:01;100345.56;;;30.70;29.24
26657;BME280;14279;50.010;8.260;2022-08-03T10:55:38;100340.63;;;30.87;28.91
26657;BME280;14279;50.010;8.260;2022-08-03T11:01:09;100334.22;;;30.95;28.93
26657;BME280;14279;50.010;8.260;2022-08-03T11:06:23;100331.34;;;31.10;28.27
26657;BME280;14279;50.010;8.260;2022-08-03T11:11:43;100330.53;;;31.02;28.00
26657;BME280;14279;50.010;8.260;2022-08-03T11:14:15;100321.41;;;31.10;28.53
26657;BME280;14279;50.010;8.260;2022-08-03T11:16:44;100330.09;;;31.12;28.66
26657;BME280;14279;50.010;8.260;2022-08-03T11:19:12;100331.56;;;31.22;27.98
26657;BME280;14279;50.010;8.260;2022-08-03T11:27:29;100322.88;;;31.19;28.48
26657;BME280;14279;50.010;8.260;2022-08-03T11:30:30;100322.03;;;31.32;28.55
26657;BME280;14279;50.010;8.260;2022-08-03T11:32:57;100316.66;;;31.39;28.75
26657;BME280;14279;50.010;8.260;2022-08-03T11:35:30;100323.69;;;31.40;27.95
26657;BME280;14279;50.010;8.260;2022-08-03T11:45:58;100312.91;;;31.54;27.67
26657;BME280;14279;50.010;8.260;2022-08-03T11:48:44;100309.81;;;31.50;27.73
26657;BME280;14279;50.010;8.260;2022-08-03T11:53:57;100309.56;;;31.72;28.49
26657;BME280;14279;50.010;8.260;2022-08-03T11:56:23;100309.03;;;31.95;27.58
26657;BME280;14279;50.010;8.260;2022-08-03T11:58:50;100296.00;;;31.92;27.26
26657;BME280;14279;50.010;8.260;2022-08-03T12:01:18;100295.50;;;31.63;28.06
26657;BME280;14279;50.010;8.260;2022-08-03T12:03:43;100286.34;;;31.77;27.45
26657;BME280;14279;50.010;8.260;2022-08-03T12:06:11;100298.88;;;31.97;27.62
26657;BME280;14279;50.010;8.260;2022-08-03T12:08:37;100295.09;;;32.12;27.53
26657;BME280;14279;50.010;8.260;2022-08-03T12:11:04;100285.28;;;32.31;27.24
26657;BME280;14279;50.010;8.260;2022-08-03T12:13:43;100292.00;;;32.47;26.58
26657;BME280;14279;50.010;8.260;2022-08-03T12:16:10;100291.84;;;32.42;26.60
26657;BME280;14279;50.010;8.260;2022-08-03T12:18:42;100294.84;;;32.20;26.76
26657;BME280;14279;50.010;8.260;2022-08-03T12:21:09;100290.88;;;32.29;26.70
26657;BME280;14279;50.010;8.260;2022-08-03T12:24:13;100298.13;;;32.29;26.90
26657;BME280;14279;50.010;8.260;2022-08-03T12:26:47;100288.22;;;32.55;26.79
26657;BME280;14279;50.010;8.260;2022-08-03T12:29:20;100293.53;;;32.68;26.35
26657;BME280;14279;50.010;8.260;2022-08-03T12:31:46;100286.91;;;32.64;26.54
26657;BME280;14279;50.010;8.260;2022-08-03T12:34:11;100285.25;;;32.63;26.89
26657;BME280;14279;50.010;8.260;2022-08-03T12:36:37;100277.31;;;32.43;27.04
26657;BME280;14279;50.010;8.260;2022-08-03T12:39:14;100284.66;;;32.61;26.81
26657;BME280;14279;50.010;8.260;2022-08-03T12:41:39;100280.59;;;32.77;26.90
26657;BME280;14279;50.010;8.260;2022-08-03T12:44:07;100284.03;;;32.91;26.58
26657;BME280;14279;50.010;8.260;2022-08-03T12:46:35;100275.44;;;33.01;25.66
26657;BME280;14279;50.010;8.260;2022-08-03T12:49:12;100279.66;;;33.15;26.26
26657;BME280;14279;50.010;8.260;2022-08-03T12:54:18;100284.00;;;33.16;26.05
26657;BME280;14279;50.010;8.260;2022-08-03T12:57:01;100275.69;;;33.36;26.16
26657;BME280;14279;50.010;8.260;2022-08-03T12:59:34;100271.34;;;33.35;25.95
26657;BME280;14279;50.010;8.260;2022-08-03T13:02:01;100263.22;;;33.42;25.64
26657;BME280;14279;50.010;8.260;2022-08-03T13:04:28;100268.31;;;33.50;25.70
26657;BME280;14279;50.010;8.260;2022-08-03T13:07:13;100254.03;;;33.62;25.43
26657;BME280;14279;50.010;8.260;2022-08-03T13:09:44;100265.88;;;33.61;25.80
26657;BME280;14279;50.010;8.260;2022-08-03T13:12:13;100257.94;;;33.66;25.65
26657;BME280;14279;50.010;8.260;2022-08-03T13:14:40;100256.16;;;33.41;25.95
26657;BME280;14279;50.010;8.260;2022-08-03T13:17:05;100248.63;;;33.80;25.21
26657;BME280;14279;50.010;8.260;2022-08-03T13:19:35;100244.59;;;33.71;25.08
26657;BME280;14279;50.010;8.260;2022-08-03T13:22:09;100249.06;;;33.96;25.26
26657;BME280;14279;50.010;8.260;2022-08-03T13:24:36;100253.81;;;34.12;25.09
26657;BME280;14279;50.010;8.260;2022-08-03T13:27:01;100248.09;;;34.21;25.04
26657;BME280;14279;50.010;8.260;2022-08-03T13:29:29;100249.59;;;34.59;24.48
26657;BME280;14279;50.010;8.260;2022-08-03T13:31:54;100246.81;;;34.35;24.36
26657;BME280;14279;50.010;8.260;2022-08-03T13:34:19;100244.31;;;34.64;24.02
26657;BME280;14279;50.010;8.260;2022-08-03T13:36:45;100243.66;;;34.38;24.38
26657;BME280;14279;50.010;8.260;2022-08-03T13:39:10;100247.66;;;34.36;24.49
26657;BME280;14279;50.010;8.260;2022-08-03T13:41:35;100242.16;;;34.42;24.67
26657;BME280;14279;50.010;8.260;2022-08-03T13:44:00;100245.94;;;34.53;24.52
26657;BME280;14279;50.010;8.260;2022-08-03T13:46:26;100236.78;;;34.54;24.37
26657;BME280;14279;50.010;8.260;2022-08-03T13:48:51;100236.53;;;34.68;24.25
26657;BME280;14279;50.010;8.260;2022-08-03T13:51:17;100229.03;;;34.94;23.42
26657;BME280;14279;50.010;8.260;2022-08-03T13:53:42;100216.22;;;34.77;23.86
26657;BME280;14279;50.010;8.260;2022-08-03T13:56:07;100223.53;;;34.65;24.19
26657;BME280;14279;50.010;8.260;2022-08-03T13:58:32;100221.75;;;34.46;23.94
26657;BME280;14279;50.010;8.260;2022-08-03T14:00:57;100212.94;;;34.63;23.86
26657;BME280;14279;50.010;8.260;2022-08-03T14:03:23;100213.06;;;34.80;24.11
26657;BME280;14279;50.010;8.260;2022-08-03T14:05:48;100210.94;;;34.46;24.45